Nissos Mykonos — SYJZ — position and weather

sailwx.info

Track history (hours):
 
Tides and Currents Weather Stations Pressure Air Temp Water Temp Dewpoint Dewpoint Depression Visibility Wind Speed Wind Dir Waves Ship Positions

Nissos Mykonos

Last reported at 2017-Dec-11 17:00 UTC. Time now 2017-Dec-14 17:19 UTC.
Position N 37°31' E 024°32'.

Length 141 m; draft 5.2 m.

Type: Passenger vessel. MMSI: 240389000.

Date/timePositionNaut miles runAvg speedWind from/ knotsBaromVisibWave heightAir tempDewpointWater temp
2017-Dec-11 17:00N 37°31' E 024°32'1020.6
2017-Dec-11 16:30N 37°30' E 024°19'1020.4
2017-Dec-11 16:00N 37°34' E 024°07'1020.3
2017-Dec-11 15:30N 37°37' E 023°54'1019.9
2017-Dec-11 15:00N 37°40' E 023°43'1020.7
2017-Dec-11 14:30N 37°50' E 023°37'714.1
2017-Dec-11 14:00N 37°57' E 023°38'0 0.0
2017-Dec-11 13:30N 37°57' E 023°38'0 0.0
2017-Dec-11 13:00N 37°57' E 023°38'0 0.0
2017-Dec-11 12:30N 37°57' E 023°38'0 0.0
2017-Dec-11 12:00N 37°57' E 023°38'0 0.0
2017-Dec-11 11:30N 37°57' E 023°38'0 0.0
2017-Dec-11 11:00N 37°57' E 023°38'0 0.0
2017-Dec-11 10:30N 37°57' E 023°38'0 0.0
2017-Dec-11 10:00N 37°57' E 023°38'0 0.0
2017-Dec-11 09:30N 37°57' E 023°38'0 0.0
2017-Dec-11 09:00N 37°57' E 023°38'0 0.0
2017-Dec-11 08:30N 37°57' E 023°38'0 0.0
2017-Dec-11 08:00N 37°57' E 023°38'0 0.0
2017-Dec-11 07:30N 37°57' E 023°38'0 0.0
2017-Dec-11 07:00N 37°57' E 023°38'0 0.0
2017-Dec-11 06:30N 37°57' E 023°38'0 0.0
2017-Dec-11 06:00N 37°57' E 023°38'0 0.0
2017-Dec-11 05:30N 37°57' E 023°38'0 0.0
2017-Dec-11 05:00N 37°57' E 023°38'0 0.0
2017-Dec-11 04:30N 37°57' E 023°38'0 0.0
2017-Dec-11 04:00N 37°57' E 023°38'0 0.0
2017-Dec-11 03:30N 37°57' E 023°38'0 0.0
2017-Dec-11 03:00N 37°57' E 023°38'0 0.0
2017-Dec-11 02:30N 37°57' E 023°38'0 0.0
2017-Dec-11 02:00N 37°57' E 023°38'0 0.0
2017-Dec-11 01:30N 37°57' E 023°38'0 0.0
2017-Dec-11 01:00N 37°57' E 023°38'0 0.0
2017-Dec-11 00:30N 37°57' E 023°38'0 0.0
2017-Dec-11 00:00N 37°57' E 023°38'0 0.0
2017-Dec-10 23:30N 37°57' E 023°38'0 0.0
2017-Dec-10 23:00N 37°57' E 023°38'0 0.0
2017-Dec-10 22:30N 37°57' E 023°38'0 0.0
2017-Dec-10 22:00N 37°57' E 023°38'714.6
2017-Dec-10 21:31N 37°50' E 023°40'1223.0
2017-Dec-10 20:59N 37°40' E 023°49'1123.8
2017-Dec-10 20:31N 37°35' E 024°03'1223.6
2017-Dec-10 20:01N 37°31' E 024°16'1223.7
2017-Dec-10 19:31N 37°31' E 024°31'1224.0
2017-Dec-10 19:01N 37°31' E 024°46'1019.7
2017-Dec-10 18:30N 37°26' E 024°57'611.4
2017-Dec-10 18:00N 37°27' E 025°04'1223.7
2017-Dec-10 17:31N 37°28' E 025°19'612.3
2017-Dec-10 17:01N 37°31' E 025°26'1224.1
2017-Dec-10 16:30N 37°34' E 025°40'1224.3
2017-Dec-10 16:01N 37°37' E 025°55'1513.0
2017-Dec-10 14:53N 37°39' E 026°13'821.3
2017-Dec-10 14:31N 37°41' E 026°23'714.7
2017-Dec-10 14:00N 37°35' E 026°29'21 5.3
2017-Dec-10 10:08N 37°54' E 026°36'723.8
2017-Dec-10 09:51N 37°57' E 026°28'14713.0
2017-Dec-09 22:33N 40°05' E 024°55'818.9
2017-Dec-09 22:09N 40°12' E 024°53'319.1
2017-Dec-09 22:00N 40°15' E 024°51'1019.3
2017-Dec-09 21:30N 40°23' E 024°44'1019.5
2017-Dec-09 21:00N 40°31' E 024°36'1019.5
2017-Dec-09 20:30N 40°39' E 024°30'1020.2
2017-Dec-09 20:00N 40°49' E 024°26'714.7
2017-Dec-09 19:30N 40°56' E 024°25'0 0.0
2017-Dec-09 18:56N 40°56' E 024°25'0 0.0
2017-Dec-09 18:30N 40°56' E 024°25'0 0.0
2017-Dec-09 18:00N 40°56' E 024°25'0 0.0
2017-Dec-09 17:30N 40°56' E 024°25'1 2.8
2017-Dec-09 17:00N 40°55' E 024°24'1020.9
2017-Dec-09 16:30N 40°44' E 024°27'1121.1
2017-Dec-09 16:00N 40°34' E 024°32'1121.3
2017-Dec-09 15:30N 40°25' E 024°39'1121.4
2017-Dec-09 15:00N 40°16' E 024°45'1121.2
2017-Dec-09 14:29N 40°06' E 024°52'1221.5
2017-Dec-09 13:57N 39°56' E 024°59'5 7.6
2017-Dec-09 13:20N 39°52' E 025°02'12512.8
2017-Dec-09 03:31N 38°06' E 026°28'022.1
2017-Dec-09 03:30N 38°05' E 026°28'1121.6
2017-Dec-09 02:59N 37°58' E 026°39'25 6.9
2017-Dec-08 23:23N 37°35' E 026°29'2010.4
2017-Dec-08 21:30N 37°39' E 026°04'1320.7
2017-Dec-08 20:54N 37°36' E 025°49'820.8
2017-Dec-08 20:30N 37°34' E 025°39'1020.9
2017-Dec-08 20:01N 37°32' E 025°26'713.1
2017-Dec-08 19:31N 37°28' E 025°19'714.9
2017-Dec-08 19:01N 37°27' E 025°10'1115.7
2017-Dec-08 18:19N 37°26' E 024°57'310.0
2017-Dec-08 18:01N 37°30' E 024°57'1020.1
2017-Dec-08 17:31N 37°31' E 024°45'1120.9
2017-Dec-08 17:00N 37°31' E 024°31'1020.6
2017-Dec-08 16:31N 37°30' E 024°19'1020.4
2017-Dec-08 16:01N 37°33' E 024°06'1020.7
2017-Dec-08 15:30N 37°36' E 023°54'1020.0
2017-Dec-08 15:01N 37°41' E 023°43'1020.7
2017-Dec-08 14:31N 37°50' E 023°37'613.0
2017-Dec-08 14:01N 37°57' E 023°38'0 0.0
2017-Dec-08 13:30N 37°57' E 023°38'0 0.0
2017-Dec-08 13:00N 37°57' E 023°38'0 0.0
2017-Dec-08 12:30N 37°57' E 023°38'0 0.0
2017-Dec-08 12:01N 37°57' E 023°38'0 0.0
2017-Dec-08 11:31N 37°57' E 023°38'0 0.0
2017-Dec-08 11:01N 37°57' E 023°38'0 0.0
2017-Dec-08 10:31N 37°57' E 023°38'0 0.0
2017-Dec-08 10:01N 37°57' E 023°38'0 0.0
2017-Dec-08 09:31N 37°57' E 023°38'0 0.0
2017-Dec-08 09:01N 37°57' E 023°38'0 0.0
2017-Dec-08 08:31N 37°57' E 023°38'0 0.0
2017-Dec-08 08:01N 37°57' E 023°38'0 0.0
2017-Dec-08 07:31N 37°57' E 023°38'0 0.0
2017-Dec-08 07:00N 37°57' E 023°38'0 0.0
2017-Dec-08 06:31N 37°57' E 023°38'0 0.0
2017-Dec-08 06:01N 37°57' E 023°38'0 0.0
2017-Dec-08 05:31N 37°57' E 023°38'0 0.0
2017-Dec-08 05:01N 37°57' E 023°38'0 0.0
2017-Dec-08 04:31N 37°57' E 023°38'0 0.0
2017-Dec-08 04:01N 37°57' E 023°38'0 0.0
2017-Dec-08 03:31N 37°57' E 023°38'0 0.0
2017-Dec-08 03:01N 37°57' E 023°38'0 0.0
2017-Dec-08 02:31N 37°57' E 023°38'0 0.0
2017-Dec-08 02:01N 37°57' E 023°38'0 0.0
2017-Dec-08 01:31N 37°57' E 023°38'0 0.0
2017-Dec-08 01:01N 37°57' E 023°38'0 0.0
2017-Dec-08 00:31N 37°57' E 023°38'0 0.0
2017-Dec-08 00:01N 37°57' E 023°38'0 0.0
2017-Dec-07 23:31N 37°57' E 023°38'0 0.0
2017-Dec-07 23:01N 37°57' E 023°38'0 0.0
2017-Dec-07 22:31N 37°57' E 023°38'0 0.0
2017-Dec-07 22:01N 37°57' E 023°38'3 5.3
2017-Dec-07 21:31N 37°54' E 023°38'1223.8
2017-Dec-07 21:01N 37°43' E 023°44'1323.5
2017-Dec-07 20:29N 37°37' E 023°58'1123.8
2017-Dec-07 20:01N 37°33' E 024°11'1223.6
2017-Dec-07 19:31N 37°31' E 024°26'1223.8
2017-Dec-07 19:01N 37°31' E 024°41'1223.8
2017-Dec-07 18:30N 37°30' E 024°56'4 9.2
2017-Dec-07 18:01N 37°26' E 024°58'1223.7
2017-Dec-07 17:31N 37°27' E 025°13'4 8.8
2017-Dec-07 17:01N 37°30' E 025°18'1223.3
2017-Dec-07 16:31N 37°31' E 025°33'1224.0
2017-Dec-07 16:01N 37°31' E 025°48'1224.3
2017-Dec-07 15:30N 37°30' E 026°03'1223.6
2017-Dec-07 15:00N 37°35' E 026°17'2 3.0
2017-Dec-07 14:26N 37°37' E 026°18'819.3
2017-Dec-07 14:00N 37°35' E 026°28'1716.3
2017-Dec-07 12:59N 37°48' E 026°41'1 1.2
2017-Dec-07 12:01N 37°48' E 026°42'123.6
2017-Dec-07 11:58N 37°49' E 026°44'9 3.5
2017-Dec-07 09:23N 37°57' E 026°39'14313.5
2017-Dec-06 22:46N 39°57' E 024°59'619.9
2017-Dec-06 22:29N 40°02' E 024°55'1320.4
2017-Dec-06 21:52N 40°13' E 024°47'720.6
2017-Dec-06 21:30N 40°20' E 024°43'1020.7
2017-Dec-06 21:00N 40°29' E 024°36'  
2017-Dec-04 09:22N 37°57' E 026°39'1021.1
2017-Dec-04 08:54N 38°03' E 026°30'13213.2
2017-Dec-03 22:54N 39°55' E 024°60'820.3
2017-Dec-03 22:30N 40°02' E 024°55'1020.3
2017-Dec-03 22:00N 40°11' E 024°48'1020.2
2017-Dec-03 21:30N 40°19' E 024°42'1020.1
2017-Dec-03 21:00N 40°28' E 024°35'1020.3
2017-Dec-03 20:30N 40°37' E 024°30'1020.4
2017-Dec-03 20:00N 40°47' E 024°27'917.3
2017-Dec-03 19:31N 40°56' E 024°25'0 0.0
2017-Dec-03 19:01N 40°56' E 024°25'0 0.0
2017-Dec-03 18:31N 40°56' E 024°25'0 0.0
2017-Dec-03 18:01N 40°56' E 024°25'0 0.0
2017-Dec-03 17:31N 40°56' E 024°25'714.4
2017-Dec-03 17:01N 40°49' E 024°26'1224.2
2017-Dec-03 16:31N 40°37' E 024°30'1224.7
2017-Dec-03 16:01N 40°26' E 024°38'1224.4
2017-Dec-03 15:30N 40°15' E 024°46'1224.1
2017-Dec-03 15:00N 40°05' E 024°53'140 4.0
2017-Dec-02 04:20N 38°05' E 026°28'824.5
2017-Dec-02 04:00N 38°01' E 026°36'2024.7
2017-Dec-02 03:13N 37°48' E 026°55'25 8.4
2017-Dec-02 00:16N 37°35' E 026°29'1 2.5
2017-Dec-01 23:59N 37°35' E 026°28'1910.9
2017-Dec-01 22:14N 37°39' E 026°04'1720.3
2017-Dec-01 21:24N 37°28' E 025°48'717.4
2017-Dec-01 21:01N 37°28' E 025°39'1019.8
2017-Dec-01 20:31N 37°31' E 025°27'815.5
2017-Dec-01 20:01N 37°28' E 025°19'4 8.2
2017-Dec-01 19:31N 37°28' E 025°14'1223.8
2017-Dec-01 19:01N 37°26' E 024°59'2 3.1
2017-Dec-01 18:30N 37°27' E 024°57'917.5
2017-Dec-01 18:00N 37°31' E 024°48'1020.5
2017-Dec-01 17:30N 37°31' E 024°35'  
Track history (hours):
 
Tides and Currents Weather Stations Pressure Air Temp Water Temp Dewpoint Dewpoint Depression Visibility Wind Speed Wind Dir Waves Ship Positions

Nissos Mykonos

Last reported at 2017-Dec-11 17:00 UTC. Time now 2017-Dec-14 17:19 UTC.
Position N 37°31' E 024°32'.

Length 141 m; draft 5.2 m.

Type: Passenger vessel. MMSI: 240389000.

Date/timePositionNaut miles runAvg speedWind from/ knotsBaromVisibWave heightAir tempDewpointWater temp
2017-Dec-11 17:00N 37°31' E 024°32'1020.6
2017-Dec-11 16:30N 37°30' E 024°19'1020.4
2017-Dec-11 16:00N 37°34' E 024°07'1020.3
2017-Dec-11 15:30N 37°37' E 023°54'1019.9
2017-Dec-11 15:00N 37°40' E 023°43'1020.7
2017-Dec-11 14:30N 37°50' E 023°37'714.1
2017-Dec-11 14:00N 37°57' E 023°38'0 0.0
2017-Dec-11 13:30N 37°57' E 023°38'0 0.0
2017-Dec-11 13:00N 37°57' E 023°38'0 0.0
2017-Dec-11 12:30N 37°57' E 023°38'0 0.0
2017-Dec-11 12:00N 37°57' E 023°38'0 0.0
2017-Dec-11 11:30N 37°57' E 023°38'0 0.0
2017-Dec-11 11:00N 37°57' E 023°38'0 0.0
2017-Dec-11 10:30N 37°57' E 023°38'0 0.0
2017-Dec-11 10:00N 37°57' E 023°38'0 0.0
2017-Dec-11 09:30N 37°57' E 023°38'0 0.0
2017-Dec-11 09:00N 37°57' E 023°38'0 0.0
2017-Dec-11 08:30N 37°57' E 023°38'0 0.0
2017-Dec-11 08:00N 37°57' E 023°38'0 0.0
2017-Dec-11 07:30N 37°57' E 023°38'0 0.0
2017-Dec-11 07:00N 37°57' E 023°38'0 0.0
2017-Dec-11 06:30N 37°57' E 023°38'0 0.0
2017-Dec-11 06:00N 37°57' E 023°38'0 0.0
2017-Dec-11 05:30N 37°57' E 023°38'0 0.0
2017-Dec-11 05:00N 37°57' E 023°38'0 0.0
2017-Dec-11 04:30N 37°57' E 023°38'0 0.0
2017-Dec-11 04:00N 37°57' E 023°38'0 0.0
2017-Dec-11 03:30N 37°57' E 023°38'0 0.0
2017-Dec-11 03:00N 37°57' E 023°38'0 0.0
2017-Dec-11 02:30N 37°57' E 023°38'0 0.0
2017-Dec-11 02:00N 37°57' E 023°38'0 0.0
2017-Dec-11 01:30N 37°57' E 023°38'0 0.0
2017-Dec-11 01:00N 37°57' E 023°38'0 0.0
2017-Dec-11 00:30N 37°57' E 023°38'0 0.0
2017-Dec-11 00:00N 37°57' E 023°38'0 0.0
2017-Dec-10 23:30N 37°57' E 023°38'0 0.0
2017-Dec-10 23:00N 37°57' E 023°38'0 0.0
2017-Dec-10 22:30N 37°57' E 023°38'0 0.0
2017-Dec-10 22:00N 37°57' E 023°38'714.6
2017-Dec-10 21:31N 37°50' E 023°40'1223.0
2017-Dec-10 20:59N 37°40' E 023°49'1123.8
2017-Dec-10 20:31N 37°35' E 024°03'1223.6
2017-Dec-10 20:01N 37°31' E 024°16'1223.7
2017-Dec-10 19:31N 37°31' E 024°31'1224.0
2017-Dec-10 19:01N 37°31' E 024°46'1019.7
2017-Dec-10 18:30N 37°26' E 024°57'611.4
2017-Dec-10 18:00N 37°27' E 025°04'1223.7
2017-Dec-10 17:31N 37°28' E 025°19'612.3
2017-Dec-10 17:01N 37°31' E 025°26'1224.1
2017-Dec-10 16:30N 37°34' E 025°40'1224.3
2017-Dec-10 16:01N 37°37' E 025°55'1513.0
2017-Dec-10 14:53N 37°39' E 026°13'821.3
2017-Dec-10 14:31N 37°41' E 026°23'714.7
2017-Dec-10 14:00N 37°35' E 026°29'21 5.3
2017-Dec-10 10:08N 37°54' E 026°36'723.8
2017-Dec-10 09:51N 37°57' E 026°28'14713.0
2017-Dec-09 22:33N 40°05' E 024°55'818.9
2017-Dec-09 22:09N 40°12' E 024°53'319.1
2017-Dec-09 22:00N 40°15' E 024°51'1019.3
2017-Dec-09 21:30N 40°23' E 024°44'1019.5
2017-Dec-09 21:00N 40°31' E 024°36'1019.5
2017-Dec-09 20:30N 40°39' E 024°30'1020.2
2017-Dec-09 20:00N 40°49' E 024°26'714.7
2017-Dec-09 19:30N 40°56' E 024°25'0 0.0
2017-Dec-09 18:56N 40°56' E 024°25'0 0.0
2017-Dec-09 18:30N 40°56' E 024°25'0 0.0
2017-Dec-09 18:00N 40°56' E 024°25'0 0.0
2017-Dec-09 17:30N 40°56' E 024°25'1 2.8
2017-Dec-09 17:00N 40°55' E 024°24'1020.9
2017-Dec-09 16:30N 40°44' E 024°27'1121.1
2017-Dec-09 16:00N 40°34' E 024°32'1121.3
2017-Dec-09 15:30N 40°25' E 024°39'1121.4
2017-Dec-09 15:00N 40°16' E 024°45'1121.2
2017-Dec-09 14:29N 40°06' E 024°52'1221.5
2017-Dec-09 13:57N 39°56' E 024°59'5 7.6
2017-Dec-09 13:20N 39°52' E 025°02'12512.8
2017-Dec-09 03:31N 38°06' E 026°28'022.1
2017-Dec-09 03:30N 38°05' E 026°28'1121.6
2017-Dec-09 02:59N 37°58' E 026°39'25 6.9
2017-Dec-08 23:23N 37°35' E 026°29'2010.4
2017-Dec-08 21:30N 37°39' E 026°04'1320.7
2017-Dec-08 20:54N 37°36' E 025°49'820.8
2017-Dec-08 20:30N 37°34' E 025°39'1020.9
2017-Dec-08 20:01N 37°32' E 025°26'713.1
2017-Dec-08 19:31N 37°28' E 025°19'714.9
2017-Dec-08 19:01N 37°27' E 025°10'1115.7
2017-Dec-08 18:19N 37°26' E 024°57'310.0
2017-Dec-08 18:01N 37°30' E 024°57'1020.1
2017-Dec-08 17:31N 37°31' E 024°45'1120.9
2017-Dec-08 17:00N 37°31' E 024°31'1020.6
2017-Dec-08 16:31N 37°30' E 024°19'1020.4
2017-Dec-08 16:01N 37°33' E 024°06'1020.7
2017-Dec-08 15:30N 37°36' E 023°54'1020.0
2017-Dec-08 15:01N 37°41' E 023°43'1020.7
2017-Dec-08 14:31N 37°50' E 023°37'613.0
2017-Dec-08 14:01N 37°57' E 023°38'0 0.0
2017-Dec-08 13:30N 37°57' E 023°38'0 0.0
2017-Dec-08 13:00N 37°57' E 023°38'0 0.0
2017-Dec-08 12:30N 37°57' E 023°38'0 0.0
2017-Dec-08 12:01N 37°57' E 023°38'0 0.0
2017-Dec-08 11:31N 37°57' E 023°38'0 0.0
2017-Dec-08 11:01N 37°57' E 023°38'0 0.0
2017-Dec-08 10:31N 37°57' E 023°38'0 0.0
2017-Dec-08 10:01N 37°57' E 023°38'0 0.0
2017-Dec-08 09:31N 37°57' E 023°38'0 0.0
2017-Dec-08 09:01N 37°57' E 023°38'0 0.0
2017-Dec-08 08:31N 37°57' E 023°38'0 0.0
2017-Dec-08 08:01N 37°57' E 023°38'0 0.0
2017-Dec-08 07:31N 37°57' E 023°38'0 0.0
2017-Dec-08 07:00N 37°57' E 023°38'0 0.0
2017-Dec-08 06:31N 37°57' E 023°38'0 0.0
2017-Dec-08 06:01N 37°57' E 023°38'0 0.0
2017-Dec-08 05:31N 37°57' E 023°38'0 0.0
2017-Dec-08 05:01N 37°57' E 023°38'0 0.0
2017-Dec-08 04:31N 37°57' E 023°38'0 0.0
2017-Dec-08 04:01N 37°57' E 023°38'0 0.0
2017-Dec-08 03:31N 37°57' E 023°38'0 0.0
2017-Dec-08 03:01N 37°57' E 023°38'0 0.0
2017-Dec-08 02:31N 37°57' E 023°38'0 0.0
2017-Dec-08 02:01N 37°57' E 023°38'0 0.0
2017-Dec-08 01:31N 37°57' E 023°38'0 0.0
2017-Dec-08 01:01N 37°57' E 023°38'0 0.0
2017-Dec-08 00:31N 37°57' E 023°38'0 0.0
2017-Dec-08 00:01N 37°57' E 023°38'0 0.0
2017-Dec-07 23:31N 37°57' E 023°38'0 0.0
2017-Dec-07 23:01N 37°57' E 023°38'0 0.0
2017-Dec-07 22:31N 37°57' E 023°38'0 0.0
2017-Dec-07 22:01N 37°57' E 023°38'3 5.3
2017-Dec-07 21:31N 37°54' E 023°38'1223.8
2017-Dec-07 21:01N 37°43' E 023°44'1323.5
2017-Dec-07 20:29N 37°37' E 023°58'1123.8
2017-Dec-07 20:01N 37°33' E 024°11'1223.6
2017-Dec-07 19:31N 37°31' E 024°26'1223.8
2017-Dec-07 19:01N 37°31' E 024°41'1223.8
2017-Dec-07 18:30N 37°30' E 024°56'4 9.2
2017-Dec-07 18:01N 37°26' E 024°58'1223.7
2017-Dec-07 17:31N 37°27' E 025°13'4 8.8
2017-Dec-07 17:01N 37°30' E 025°18'1223.3
2017-Dec-07 16:31N 37°31' E 025°33'1224.0
2017-Dec-07 16:01N 37°31' E 025°48'1224.3
2017-Dec-07 15:30N 37°30' E 026°03'1223.6
2017-Dec-07 15:00N 37°35' E 026°17'2 3.0
2017-Dec-07 14:26N 37°37' E 026°18'819.3
2017-Dec-07 14:00N 37°35' E 026°28'1716.3
2017-Dec-07 12:59N 37°48' E 026°41'1 1.2
2017-Dec-07 12:01N 37°48' E 026°42'123.6
2017-Dec-07 11:58N 37°49' E 026°44'9 3.5
2017-Dec-07 09:23N 37°57' E 026°39'14313.5
2017-Dec-06 22:46N 39°57' E 024°59'619.9
2017-Dec-06 22:29N 40°02' E 024°55'1320.4
2017-Dec-06 21:52N 40°13' E 024°47'720.6
2017-Dec-06 21:30N 40°20' E 024°43'1020.7
2017-Dec-06 21:00N 40°29' E 024°36'  
2017-Dec-04 09:22N 37°57' E 026°39'1021.1
2017-Dec-04 08:54N 38°03' E 026°30'13213.2
2017-Dec-03 22:54N 39°55' E 024°60'820.3
2017-Dec-03 22:30N 40°02' E 024°55'1020.3
2017-Dec-03 22:00N 40°11' E 024°48'1020.2
2017-Dec-03 21:30N 40°19' E 024°42'1020.1
2017-Dec-03 21:00N 40°28' E 024°35'1020.3
2017-Dec-03 20:30N 40°37' E 024°30'1020.4
2017-Dec-03 20:00N 40°47' E 024°27'917.3
2017-Dec-03 19:31N 40°56' E 024°25'0 0.0
2017-Dec-03 19:01N 40°56' E 024°25'0 0.0
2017-Dec-03 18:31N 40°56' E 024°25'0 0.0
2017-Dec-03 18:01N 40°56' E 024°25'0 0.0
2017-Dec-03 17:31N 40°56' E 024°25'714.4
2017-Dec-03 17:01N 40°49' E 024°26'1224.2
2017-Dec-03 16:31N 40°37' E 024°30'1224.7
2017-Dec-03 16:01N 40°26' E 024°38'1224.4
2017-Dec-03 15:30N 40°15' E 024°46'1224.1
2017-Dec-03 15:00N 40°05' E 024°53'140 4.0
2017-Dec-02 04:20N 38°05' E 026°28'824.5
2017-Dec-02 04:00N 38°01' E 026°36'2024.7
2017-Dec-02 03:13N 37°48' E 026°55'25 8.4
2017-Dec-02 00:16N 37°35' E 026°29'1 2.5
2017-Dec-01 23:59N 37°35' E 026°28'1910.9
2017-Dec-01 22:14N 37°39' E 026°04'1720.3
2017-Dec-01 21:24N 37°28' E 025°48'717.4
2017-Dec-01 21:01N 37°28' E 025°39'1019.8
2017-Dec-01 20:31N 37°31' E 025°27'815.5
2017-Dec-01 20:01N 37°28' E 025°19'4 8.2
2017-Dec-01 19:31N 37°28' E 025°14'1223.8
2017-Dec-01 19:01N 37°26' E 024°59'2 3.1
2017-Dec-01 18:30N 37°27' E 024°57'917.5
2017-Dec-01 18:00N 37°31' E 024°48'1020.5
2017-Dec-01 17:30N 37°31' E 024°35'  

Dump ship's entire track history